createdAt,value
2022-08-25T00:04:17.095Z,42.41
2022-08-25T00:34:25.564Z,44.08
2022-08-25T01:04:29.648Z,45.85
2022-08-25T01:34:37.569Z,47.46
2022-08-25T02:04:44.256Z,49.48
2022-08-25T02:34:48.759Z,50.99
2022-08-25T03:04:53.637Z,52.89
2022-08-25T03:34:59.648Z,54.51
2022-08-25T04:05:03.797Z,55.34
2022-08-25T04:35:09.363Z,57.01
2022-08-25T05:05:14.540Z,58.89
2022-08-25T05:35:19.818Z,59.01
2022-08-25T06:05:24.248Z,59.04
2022-08-25T06:35:28.692Z,57.93
2022-08-25T07:05:43.106Z,57.45
2022-08-25T07:35:48.421Z,55.14
2022-08-25T08:05:56.458Z,47.59
2022-08-25T08:36:05.046Z,36.88
2022-08-25T09:06:12.587Z,33.37
2022-08-25T09:36:17.313Z,29.27
2022-08-25T10:06:24.985Z,29.37
2022-08-25T10:36:33.678Z,25.64
2022-08-25T11:06:43.515Z,24.10
2022-08-25T11:36:54.145Z,22.35
2022-08-25T12:07:25.067Z,27.52
2022-08-25T12:37:29.927Z,25.61
2022-08-25T13:07:50.351Z,23.99
2022-08-25T13:37:54.962Z,23.48
2022-08-25T14:08:15.735Z,25.08
2022-08-25T14:38:21.188Z,23.90
2022-08-25T15:08:43.911Z,25.64
2022-08-25T15:38:50.352Z,31.44
2022-08-25T16:08:54.544Z,31.17
2022-08-25T16:39:00.908Z,34.57
2022-08-25T17:09:05.680Z,34.81
2022-08-25T17:39:12.661Z,36.81
2022-08-25T18:09:19.285Z,37.97
2022-08-25T18:39:41.796Z,40.82
2022-08-25T19:09:48.347Z,43.23
2022-08-25T19:39:55.769Z,44.83
2022-08-25T20:10:02.535Z,45.53
2022-08-25T20:40:09.306Z,46.45
2022-08-25T21:10:14.095Z,46.97
2022-08-25T21:40:19.466Z,49.02
2022-08-25T22:10:23.767Z,50.57
2022-08-25T22:40:29.241Z,52.03
2022-08-25T23:10:33.499Z,53.02
2022-08-25T23:40:40.659Z,53.15
